Pink Coral — 9HPY9 — position and weather

sailwx.info

Track history (hours):
 
Tides and Currents Weather Stations Pressure Air Temp Water Temp Dewpoint Dewpoint Depression Visibility Wind Speed Wind Dir Waves Ship Positions

Pink Coral

Last reported at 2017-Jul-23 02:26 UTC. Time now 2017-Jul-23 02:37 UTC.
Position N 34°33' E 033°15'.

Length 183 m; draft 12.4 m.

Type: Ship (hazmat cat A). MMSI: 249344000.

Date/timePositionNaut miles runAvg speedWind from/ knotsBaromVisibWave heightAir tempDewpointWater temp
2017-Jul-23 02:26N 34°33' E 033°15'0 0.3
2017-Jul-23 01:59N 34°33' E 033°15'0 0.3
2017-Jul-23 01:28N 34°32' E 033°16'0 0.4
2017-Jul-23 00:56N 34°32' E 033°16'0 0.3
2017-Jul-23 00:29N 34°32' E 033°16'0 0.3
2017-Jul-22 23:59N 34°32' E 033°16'0 0.2
2017-Jul-22 23:29N 34°32' E 033°16'0 0.3
2017-Jul-22 22:59N 34°32' E 033°16'0 0.4
2017-Jul-22 22:29N 34°32' E 033°16'0 0.4
2017-Jul-22 21:58N 34°32' E 033°16'0 0.4
2017-Jul-22 21:29N 34°32' E 033°16'0 0.2
2017-Jul-22 20:59N 34°31' E 033°17'0 0.2
2017-Jul-22 20:28N 34°31' E 033°17'0 0.4
2017-Jul-22 19:58N 34°31' E 033°17'0 0.4
2017-Jul-22 19:29N 34°31' E 033°17'0 0.2
2017-Jul-22 18:58N 34°31' E 033°17'0 0.1
2017-Jul-22 18:28N 34°31' E 033°17'0 0.2
2017-Jul-22 17:58N 34°31' E 033°17'0 0.3
2017-Jul-22 17:29N 34°31' E 033°17'0 0.2
2017-Jul-22 16:59N 34°31' E 033°17'0 0.1
2017-Jul-22 16:28N 34°30' E 033°17'0 0.3
2017-Jul-22 15:58N 34°30' E 033°17'0 0.4
2017-Jul-22 15:28N 34°30' E 033°17'0 0.2
2017-Jul-22 14:58N 34°30' E 033°17'0 0.1
2017-Jul-22 13:55N 34°30' E 033°17'0 0.3
2017-Jul-22 13:25N 34°30' E 033°18'0 0.1
2017-Jul-22 12:58N 34°30' E 033°18'0 0.1
2017-Jul-22 12:28N 34°30' E 033°18'0 0.0
2017-Jul-22 11:58N 34°30' E 033°18'0 0.1
2017-Jul-22 11:28N 34°30' E 033°18'0 0.1
2017-Jul-22 10:58N 34°30' E 033°18'0 0.3
2017-Jul-22 10:28N 34°30' E 033°18'0 0.1
2017-Jul-22 09:58N 34°30' E 033°17'0 0.0
2017-Jul-22 09:28N 34°30' E 033°17'0 0.2
2017-Jul-22 08:58N 34°30' E 033°17'0 0.6
2017-Jul-22 08:28N 34°31' E 033°17'1 2.2
2017-Jul-22 08:00N 34°30' E 033°18'610.8
2017-Jul-22 07:27N 34°33' E 033°25'611.4
2017-Jul-22 06:58N 34°35' E 033°31'5 0.2
2017-Jul-21 03:35N 34°30' E 033°32'0 0.5
2017-Jul-21 03:02N 34°29' E 033°33'0 0.6
2017-Jul-21 02:59N 34°29' E 033°33'1 0.4
2017-Jul-21 01:02N 34°29' E 033°33'0 0.4
2017-Jul-21 00:56N 34°29' E 033°33'1 0.3
2017-Jul-20 22:32N 34°28' E 033°34'0 0.3
2017-Jul-20 22:23N 34°28' E 033°34'0 0.3
2017-Jul-20 21:59N 34°28' E 033°34'0 0.2
2017-Jul-20 21:23N 34°28' E 033°34'0 0.1
2017-Jul-20 20:56N 34°28' E 033°34'0 0.3
2017-Jul-20 20:26N 34°28' E 033°34'0 0.2
2017-Jul-20 19:20N 34°28' E 033°35'0 0.2
2017-Jul-20 18:35N 34°29' E 033°35'0 0.3
2017-Jul-20 18:29N 34°29' E 033°35'2 0.3
2017-Jul-20 12:02N 34°30' E 033°32'1 0.5
2017-Jul-20 09:59N 34°30' E 033°31'0 0.6
2017-Jul-20 09:29N 34°30' E 033°31'0 0.5
2017-Jul-20 08:53N 34°29' E 033°30'0 0.7
2017-Jul-20 08:23N 34°29' E 033°30'0 0.8
2017-Jul-20 07:59N 34°29' E 033°30'0 0.6
2017-Jul-20 07:23N 34°29' E 033°30'0 0.8
2017-Jul-20 06:59N 34°28' E 033°29'0 0.7
2017-Jul-20 06:29N 34°28' E 033°29'1 0.6
2017-Jul-20 04:56N 34°27' E 033°29'0 0.4
2017-Jul-20 04:05N 34°27' E 033°28'0 0.3
2017-Jul-20 03:59N 34°27' E 033°28'0 0.3
2017-Jul-20 03:29N 34°27' E 033°29'0 0.3
2017-Jul-20 02:32N 34°27' E 033°29'0 0.2
2017-Jul-20 02:26N 34°26' E 033°29'0 0.3
2017-Jul-20 01:59N 34°26' E 033°29'0 0.2
2017-Jul-20 01:26N 34°26' E 033°29'0 0.0
2017-Jul-20 00:59N 34°26' E 033°29'0 0.0
2017-Jul-20 00:29N 34°26' E 033°29'0 0.1
2017-Jul-19 23:56N 34°26' E 033°29'0 0.2
2017-Jul-19 23:29N 34°26' E 033°29'0 0.1
2017-Jul-19 22:59N 34°26' E 033°29'0 0.3
2017-Jul-19 22:29N 34°27' E 033°29'0 0.5
2017-Jul-19 21:59N 34°27' E 033°29'0 0.6
2017-Jul-19 21:26N 34°27' E 033°28'0 0.6
2017-Jul-19 20:56N 34°27' E 033°28'1 0.7
2017-Jul-19 20:11N 34°28' E 033°28'0 0.7
2017-Jul-19 19:47N 34°28' E 033°27'0 0.7
2017-Jul-19 19:17N 34°28' E 033°27'0 0.7
2017-Jul-19 18:56N 34°28' E 033°27'0 0.7
2017-Jul-19 18:29N 34°28' E 033°27'0 0.7
2017-Jul-19 17:59N 34°28' E 033°26'0 0.8
2017-Jul-19 17:30N 34°29' E 033°26'0 0.8
2017-Jul-19 17:00N 34°29' E 033°25'0 0.9
2017-Jul-19 16:30N 34°29' E 033°25'0 0.9
2017-Jul-19 16:00N 34°29' E 033°24'0 0.9
2017-Jul-19 15:30N 34°29' E 033°24'0 0.9
2017-Jul-19 15:00N 34°30' E 033°23'0 0.9
2017-Jul-19 14:30N 34°30' E 033°23'0 0.9
2017-Jul-19 14:00N 34°30' E 033°22'0 0.9
2017-Jul-19 13:30N 34°30' E 033°22'0 0.9
2017-Jul-19 13:00N 34°30' E 033°21'1 1.0
2017-Jul-19 12:27N 34°30' E 033°21'0 1.0
2017-Jul-19 12:00N 34°30' E 033°20'1 1.0
2017-Jul-19 11:30N 34°31' E 033°20'1 1.0
2017-Jul-19 11:00N 34°31' E 033°19'0 1.0
2017-Jul-19 10:30N 34°31' E 033°18'1 0.9
2017-Jul-19 09:45N 34°30' E 033°18'0 0.9
2017-Jul-19 09:30N 34°30' E 033°17'0 0.9
2017-Jul-19 09:00N 34°30' E 033°17'0 0.8
2017-Jul-19 08:30N 34°30' E 033°17'3 6.8
2017-Jul-19 08:00N 34°30' E 033°21'4 7.9
2017-Jul-19 07:30N 34°30' E 033°26'0 0.4
2017-Jul-19 06:59N 34°30' E 033°26'0 0.6
2017-Jul-19 06:29N 34°30' E 033°26'0 0.5
2017-Jul-19 05:59N 34°29' E 033°26'0 0.7
2017-Jul-19 05:29N 34°29' E 033°26'0 0.7
2017-Jul-19 04:59N 34°29' E 033°26'0 0.5
2017-Jul-19 04:29N 34°28' E 033°26'0 0.2
2017-Jul-19 02:38N 34°28' E 033°26'1 0.2
2017-Jul-18 21:47N 34°29' E 033°26'0 0.4
2017-Jul-18 21:29N 34°29' E 033°26'0 0.5
2017-Jul-18 20:59N 34°29' E 033°25'0 0.5
2017-Jul-18 20:29N 34°29' E 033°25'0 0.5
2017-Jul-18 19:59N 34°29' E 033°25'1 0.7
2017-Jul-18 19:17N 34°29' E 033°24'0 0.8
2017-Jul-18 18:59N 34°30' E 033°24'0 0.9
2017-Jul-18 18:29N 34°30' E 033°23'0 0.9
2017-Jul-18 18:00N 34°30' E 033°23'0 0.9
2017-Jul-18 17:30N 34°30' E 033°22'0 1.0
2017-Jul-18 16:59N 34°30' E 033°22'1 1.0
2017-Jul-18 16:27N 34°30' E 033°21'0 0.9
2017-Jul-18 15:59N 34°30' E 033°21'0 0.8
2017-Jul-18 15:30N 34°30' E 033°20'0 0.8
2017-Jul-18 14:56N 34°30' E 033°20'1 0.7
2017-Jul-18 13:47N 34°30' E 033°19'0 0.6
2017-Jul-18 13:29N 34°30' E 033°18'0 0.6
2017-Jul-18 13:00N 34°30' E 033°18'0 0.5
2017-Jul-18 12:30N 34°30' E 033°18'0 0.5
2017-Jul-18 11:56N 34°30' E 033°17'0 0.4
2017-Jul-18 11:30N 34°30' E 033°17'0 0.5
2017-Jul-18 10:51N 34°30' E 033°17'0 0.3
2017-Jul-18 10:30N 34°30' E 033°17'0 0.6
2017-Jul-18 10:00N 34°30' E 033°17'3 7.0
2017-Jul-18 09:30N 34°32' E 033°20'3 5.0
2017-Jul-18 08:52N 34°34' E 033°23'0 0.3
2017-Jul-18 08:16N 34°34' E 033°23'0 0.5
2017-Jul-18 07:58N 34°34' E 033°23'0 0.4
2017-Jul-18 07:22N 34°34' E 033°23'0 0.5
2017-Jul-18 06:58N 34°34' E 033°23'0 0.7
2017-Jul-18 06:28N 34°33' E 033°23'3 0.3
2017-Jul-17 22:09N 34°31' E 033°23'0 0.2
2017-Jul-17 22:00N 34°31' E 033°23'1 0.4
2017-Jul-17 20:12N 34°30' E 033°23'0 0.4
2017-Jul-17 20:00N 34°30' E 033°23'0 0.3
2017-Jul-17 19:27N 34°30' E 033°22'0 0.3
2017-Jul-17 18:57N 34°30' E 033°22'0 0.3
2017-Jul-17 18:27N 34°30' E 033°22'0 0.3
2017-Jul-17 17:33N 34°29' E 033°22'0 0.3
2017-Jul-17 17:27N 34°29' E 033°22'0 0.3
2017-Jul-17 16:51N 34°29' E 033°22'0 0.3
2017-Jul-17 16:30N 34°29' E 033°22'0 0.3
2017-Jul-17 16:00N 34°29' E 033°21'0 0.4
2017-Jul-17 15:30N 34°29' E 033°21'0 0.4
2017-Jul-17 14:27N 34°29' E 033°21'0 0.4
2017-Jul-17 13:15N 34°29' E 033°20'0 0.4
2017-Jul-17 12:03N 34°29' E 033°20'0 0.5
2017-Jul-17 12:00N 34°29' E 033°20'1 0.3
2017-Jul-17 10:00N 34°29' E 033°19'0 0.3
2017-Jul-17 09:30N 34°29' E 033°19'0 0.4
2017-Jul-17 08:57N 34°29' E 033°18'0 0.4
2017-Jul-17 08:30N 34°29' E 033°18'0 0.4
2017-Jul-17 08:00N 34°29' E 033°18'0 0.3
2017-Jul-17 07:30N 34°30' E 033°18'0 0.4
2017-Jul-17 07:00N 34°30' E 033°18'0 0.7
2017-Jul-17 06:30N 34°30' E 033°17'1 2.2
2017-Jul-17 06:00N 34°30' E 033°18'3 0.5
2017-Jul-17 00:49N 34°30' E 033°22'0 0.4
2017-Jul-17 00:28N 34°30' E 033°22'0 0.4
2017-Jul-16 23:58N 34°30' E 033°22'0 0.3
2017-Jul-16 23:07N 34°30' E 033°21'0 0.2
2017-Jul-16 22:58N 34°30' E 033°21'0 0.3
2017-Jul-16 22:28N 34°30' E 033°21'0 0.2
2017-Jul-16 21:37N 34°30' E 033°21'0 0.3
2017-Jul-16 21:25N 34°30' E 033°21'0 0.3
2017-Jul-16 20:58N 34°30' E 033°21'0 0.3
2017-Jul-16 20:28N 34°30' E 033°21'0 0.3
2017-Jul-16 19:58N 34°29' E 033°21'0 0.3
2017-Jul-16 19:28N 34°29' E 033°20'0 0.3
2017-Jul-16 18:58N 34°29' E 033°20'0 0.4
2017-Jul-16 18:28N 34°29' E 033°20'0 0.4
2017-Jul-16 17:55N 34°29' E 033°20'0 0.4
2017-Jul-16 17:22N 34°29' E 033°20'0 0.4
2017-Jul-16 16:37N 34°29' E 033°19'0 0.5
2017-Jul-16 16:28N 34°29' E 033°19'0 0.5
2017-Jul-16 15:58N 34°29' E 033°19'0 0.5
2017-Jul-16 15:28N 34°29' E 033°19'0 0.5
2017-Jul-16 14:55N 34°29' E 033°18'0 0.5
2017-Jul-16 14:28N 34°29' E 033°18'0 0.5
2017-Jul-16 13:52N 34°29' E 033°18'0 0.5
2017-Jul-16 13:22N 34°30' E 033°17'0 0.6
2017-Jul-16 12:58N 34°30' E 033°17'0 0.3
2017-Jul-16 11:37N 34°30' E 033°17'0 2.8
2017-Jul-16 11:30N 34°30' E 033°17'3 6.1
2017-Jul-16 11:00N 34°33' E 033°18'2 4.6
2017-Jul-16 10:29N 34°35' E 033°19'0 0.2
2017-Jul-16 09:56N 34°35' E 033°20'0 0.1
2017-Jul-16 09:29N 34°35' E 033°20'0 0.1
2017-Jul-16 08:59N 34°35' E 033°20'0 0.1
2017-Jul-16 08:29N 34°35' E 033°20'0 0.2
2017-Jul-16 07:59N 34°35' E 033°19'0 0.3
2017-Jul-16 07:26N 34°35' E 033°19'0 0.3
2017-Jul-16 06:59N 34°35' E 033°19'0 0.2
2017-Jul-16 06:26N 34°34' E 033°19'0 0.2
2017-Jul-16 05:59N 34°34' E 033°19'0 0.3
2017-Jul-16 05:30N 34°34' E 033°19'0 0.3
2017-Jul-16 05:00N 34°34' E 033°19'0 0.3
2017-Jul-16 04:28N 34°34' E 033°19'0 0.3
2017-Jul-16 04:00N 34°34' E 033°19'0 0.3
2017-Jul-16 03:30N 34°34' E 033°19'0 0.3
2017-Jul-16 03:00N 34°33' E 033°19'0 0.4
2017-Jul-16 02:30N 34°33' E 033°19'0 0.4
2017-Jul-16 02:00N 34°33' E 033°19'0 0.4
2017-Jul-16 01:30N 34°33' E 033°19'0 0.4
2017-Jul-16 01:00N 34°33' E 033°20'0 0.4
2017-Jul-16 00:29N 34°33' E 033°20'0 0.5
2017-Jul-16 00:00N 34°32' E 033°20'0 0.5
2017-Jul-15 23:30N 34°32' E 033°20'0 0.5
2017-Jul-15 22:59N 34°32' E 033°20'0 0.3
2017-Jul-15 22:30N 34°32' E 033°20'0 0.2
2017-Jul-15 21:55N 34°32' E 033°21'0 0.3
2017-Jul-15 21:25N 34°32' E 033°21'0 0.2
2017-Jul-15 21:00N 34°32' E 033°21'0 0.1
2017-Jul-15 20:30N 34°32' E 033°21'0 0.0
2017-Jul-15 20:00N 34°32' E 033°21'0 0.1
2017-Jul-15 19:30N 34°32' E 033°21'0 0.0
2017-Jul-15 19:00N 34°32' E 033°21'0 0.1
2017-Jul-15 18:30N 34°32' E 033°21'0 0.2
2017-Jul-15 18:00N 34°32' E 033°21'0 0.2
2017-Jul-15 17:30N 34°32' E 033°21'0 0.2
2017-Jul-15 17:00N 34°32' E 033°21'0 0.2
2017-Jul-15 16:30N 34°32' E 033°20'0 0.3
2017-Jul-15 16:00N 34°32' E 033°20'0 0.3
2017-Jul-15 15:31N 34°32' E 033°20'0 0.3
2017-Jul-15 15:00N 34°32' E 033°20'0 0.4
2017-Jul-15 14:00N 34°32' E 033°19'0 0.4
2017-Jul-15 13:30N 34°32' E 033°19'0 0.4
2017-Jul-15 13:00N 34°32' E 033°19'0 0.5
2017-Jul-15 12:30N 34°31' E 033°19'0 0.5
2017-Jul-15 12:00N 34°31' E 033°18'0 0.4
2017-Jul-15 11:22N 34°31' E 033°18'0 0.5
2017-Jul-15 11:00N 34°31' E 033°18'0 0.3
2017-Jul-15 10:22N 34°31' E 033°18'0 0.4
2017-Jul-15 10:00N 34°31' E 033°18'0 0.4
2017-Jul-15 09:27N 34°31' E 033°18'0 0.3
2017-Jul-15 09:00N 34°30' E 033°18'0 0.6
2017-Jul-15 08:30N 34°30' E 033°17'1 1.5
2017-Jul-15 08:00N 34°31' E 033°17'4 8.7
2017-Jul-15 07:30N 34°35' E 033°19'2 2.9
2017-Jul-15 06:58N 34°36' E 033°19'1 0.5
2017-Jul-15 05:19N 34°36' E 033°20'0 0.4
2017-Jul-15 05:01N 34°35' E 033°20'0 0.4
2017-Jul-15 04:16N 34°35' E 033°20'0 0.5
2017-Jul-15 03:40N 34°35' E 033°20'1 0.6
2017-Jul-15 02:46N 34°34' E 033°20'0 0.6
2017-Jul-15 02:16N 34°34' E 033°20'0 0.6
2017-Jul-15 01:55N 34°34' E 033°20'0 0.6
2017-Jul-15 01:28N 34°34' E 033°20'0 0.5
2017-Jul-15 00:40N 34°33' E 033°21'0 0.4
2017-Jul-15 00:27N 34°33' E 033°21'0 0.5
2017-Jul-14 23:58N 34°33' E 033°21'0 0.4
2017-Jul-14 23:25N 34°33' E 033°21'0 0.3
2017-Jul-14 22:57N 34°33' E 033°21'0 0.3
2017-Jul-14 22:27N 34°33' E 033°21'0 0.3
2017-Jul-14 21:58N 34°32' E 033°21'0 0.3
2017-Jul-14 21:15N 34°32' E 033°21'0 0.3
2017-Jul-14 20:30N 34°32' E 033°21'0 0.1
2017-Jul-14 20:00N 34°32' E 033°22'0 0.1
2017-Jul-14 19:27N 34°32' E 033°22'0 0.2
2017-Jul-14 19:00N 34°32' E 033°22'0 0.1
2017-Jul-14 18:31N 34°32' E 033°22'0 0.3
2017-Jul-14 17:57N 34°32' E 033°22'0 0.2
2017-Jul-14 17:27N 34°32' E 033°21'0 0.2
2017-Jul-14 17:01N 34°32' E 033°21'0 0.4
2017-Jul-14 16:28N 34°32' E 033°21'0 0.4
2017-Jul-14 16:01N 34°32' E 033°21'0 0.4
2017-Jul-14 15:30N 34°32' E 033°21'0 0.5
2017-Jul-14 14:57N 34°32' E 033°20'0 0.5
2017-Jul-14 14:30N 34°32' E 033°20'0 0.5
2017-Jul-14 14:00N 34°32' E 033°20'0 0.5
2017-Jul-14 13:27N 34°32' E 033°19'0 0.5
2017-Jul-14 13:00N 34°32' E 033°19'0 0.5
2017-Jul-14 12:31N 34°32' E 033°19'0 0.6
2017-Jul-14 12:01N 34°31' E 033°19'0 0.6
2017-Jul-14 11:28N 34°31' E 033°18'0 0.6
2017-Jul-14 11:00N 34°31' E 033°18'0 0.7
2017-Jul-14 10:31N 34°31' E 033°18'0 0.7
2017-Jul-14 10:00N 34°30' E 033°18'0 0.6
2017-Jul-14 09:31N 34°30' E 033°17'0 0.4
2017-Jul-14 09:00N 34°30' E 033°17'0 0.6
2017-Jul-14 08:30N 34°30' E 033°17'2 3.7
2017-Jul-14 08:00N 34°31' E 033°18'510.6
2017-Jul-14 07:30N 34°34' E 033°24'2 2.9
2017-Jul-14 06:53N 34°35' E 033°26'0 0.6
2017-Jul-14 06:27N 34°35' E 033°26'0 0.5
2017-Jul-14 06:00N 34°34' E 033°26'0 0.5
2017-Jul-14 05:12N 34°34' E 033°26'0 0.4
2017-Jul-14 05:00N 34°34' E 033°26'0 0.4
2017-Jul-14 04:00N 34°34' E 033°26'0 0.3
2017-Jul-14 03:12N 34°33' E 033°27'0 0.1
2017-Jul-14 00:54N 34°33' E 033°27'0 0.1
2017-Jul-14 00:30N 34°33' E 033°27'0 0.0
2017-Jul-14 00:00N 34°33' E 033°27'0 0.1
2017-Jul-13 23:30N 34°33' E 033°27'0 0.1
2017-Jul-13 22:42N 34°33' E 033°27'0 0.2
2017-Jul-13 22:30N 34°33' E 033°27'1 0.3
2017-Jul-13 20:48N 34°34' E 033°26'0 0.4
2017-Jul-13 20:12N 34°34' E 033°26'0 0.4
2017-Jul-13 20:00N 34°34' E 033°26'2 0.6
2017-Jul-13 15:43N 34°33' E 033°23'0 0.7
2017-Jul-13 15:30N 34°33' E 033°23'0 0.8
2017-Jul-13 14:57N 34°33' E 033°22'0 0.8
2017-Jul-13 14:18N 34°32' E 033°22'0 0.7
2017-Jul-13 14:00N 34°32' E 033°21'1 0.9
2017-Jul-13 13:24N 34°32' E 033°21'0 0.8
2017-Jul-13 12:57N 34°32' E 033°21'0 0.7
2017-Jul-13 12:30N 34°32' E 033°20'1 0.8
2017-Jul-13 10:45N 34°31' E 033°19'0 0.6
2017-Jul-13 10:24N 34°30' E 033°19'0 0.6
2017-Jul-13 10:00N 34°30' E 033°19'1 0.4
2017-Jul-13 07:37N 34°29' E 033°18'0 0.5
2017-Jul-13 07:25N 34°29' E 033°18'0 1.0
2017-Jul-13 07:00N 34°29' E 033°18'2 3.7
2017-Jul-13 06:30N 34°30' E 033°19'711.4
2017-Jul-13 05:52N 34°35' E 033°26'3 1.6
2017-Jul-13 03:54N 34°37' E 033°29'  
Track history (hours):
 
Tides and Currents Weather Stations Pressure Air Temp Water Temp Dewpoint Dewpoint Depression Visibility Wind Speed Wind Dir Waves Ship Positions

Pink Coral

Last reported at 2017-Jul-23 02:26 UTC. Time now 2017-Jul-23 02:37 UTC.
Position N 34°33' E 033°15'.

Length 183 m; draft 12.4 m.

Type: Ship (hazmat cat A). MMSI: 249344000.

Date/timePositionNaut miles runAvg speedWind from/ knotsBaromVisibWave heightAir tempDewpointWater temp
2017-Jul-23 02:26N 34°33' E 033°15'0 0.3
2017-Jul-23 01:59N 34°33' E 033°15'0 0.3
2017-Jul-23 01:28N 34°32' E 033°16'0 0.4
2017-Jul-23 00:56N 34°32' E 033°16'0 0.3
2017-Jul-23 00:29N 34°32' E 033°16'0 0.3
2017-Jul-22 23:59N 34°32' E 033°16'0 0.2
2017-Jul-22 23:29N 34°32' E 033°16'0 0.3
2017-Jul-22 22:59N 34°32' E 033°16'0 0.4
2017-Jul-22 22:29N 34°32' E 033°16'0 0.4
2017-Jul-22 21:58N 34°32' E 033°16'0 0.4
2017-Jul-22 21:29N 34°32' E 033°16'0 0.2
2017-Jul-22 20:59N 34°31' E 033°17'0 0.2
2017-Jul-22 20:28N 34°31' E 033°17'0 0.4
2017-Jul-22 19:58N 34°31' E 033°17'0 0.4
2017-Jul-22 19:29N 34°31' E 033°17'0 0.2
2017-Jul-22 18:58N 34°31' E 033°17'0 0.1
2017-Jul-22 18:28N 34°31' E 033°17'0 0.2
2017-Jul-22 17:58N 34°31' E 033°17'0 0.3
2017-Jul-22 17:29N 34°31' E 033°17'0 0.2
2017-Jul-22 16:59N 34°31' E 033°17'0 0.1
2017-Jul-22 16:28N 34°30' E 033°17'0 0.3
2017-Jul-22 15:58N 34°30' E 033°17'0 0.4
2017-Jul-22 15:28N 34°30' E 033°17'0 0.2
2017-Jul-22 14:58N 34°30' E 033°17'0 0.1
2017-Jul-22 13:55N 34°30' E 033°17'0 0.3
2017-Jul-22 13:25N 34°30' E 033°18'0 0.1
2017-Jul-22 12:58N 34°30' E 033°18'0 0.1
2017-Jul-22 12:28N 34°30' E 033°18'0 0.0
2017-Jul-22 11:58N 34°30' E 033°18'0 0.1
2017-Jul-22 11:28N 34°30' E 033°18'0 0.1
2017-Jul-22 10:58N 34°30' E 033°18'0 0.3
2017-Jul-22 10:28N 34°30' E 033°18'0 0.1
2017-Jul-22 09:58N 34°30' E 033°17'0 0.0
2017-Jul-22 09:28N 34°30' E 033°17'0 0.2
2017-Jul-22 08:58N 34°30' E 033°17'0 0.6
2017-Jul-22 08:28N 34°31' E 033°17'1 2.2
2017-Jul-22 08:00N 34°30' E 033°18'610.8
2017-Jul-22 07:27N 34°33' E 033°25'611.4
2017-Jul-22 06:58N 34°35' E 033°31'5 0.2
2017-Jul-21 03:35N 34°30' E 033°32'0 0.5
2017-Jul-21 03:02N 34°29' E 033°33'0 0.6
2017-Jul-21 02:59N 34°29' E 033°33'1 0.4
2017-Jul-21 01:02N 34°29' E 033°33'0 0.4
2017-Jul-21 00:56N 34°29' E 033°33'1 0.3
2017-Jul-20 22:32N 34°28' E 033°34'0 0.3
2017-Jul-20 22:23N 34°28' E 033°34'0 0.3
2017-Jul-20 21:59N 34°28' E 033°34'0 0.2
2017-Jul-20 21:23N 34°28' E 033°34'0 0.1
2017-Jul-20 20:56N 34°28' E 033°34'0 0.3
2017-Jul-20 20:26N 34°28' E 033°34'0 0.2
2017-Jul-20 19:20N 34°28' E 033°35'0 0.2
2017-Jul-20 18:35N 34°29' E 033°35'0 0.3
2017-Jul-20 18:29N 34°29' E 033°35'2 0.3
2017-Jul-20 12:02N 34°30' E 033°32'1 0.5
2017-Jul-20 09:59N 34°30' E 033°31'0 0.6
2017-Jul-20 09:29N 34°30' E 033°31'0 0.5
2017-Jul-20 08:53N 34°29' E 033°30'0 0.7
2017-Jul-20 08:23N 34°29' E 033°30'0 0.8
2017-Jul-20 07:59N 34°29' E 033°30'0 0.6
2017-Jul-20 07:23N 34°29' E 033°30'0 0.8
2017-Jul-20 06:59N 34°28' E 033°29'0 0.7
2017-Jul-20 06:29N 34°28' E 033°29'1 0.6
2017-Jul-20 04:56N 34°27' E 033°29'0 0.4
2017-Jul-20 04:05N 34°27' E 033°28'0 0.3
2017-Jul-20 03:59N 34°27' E 033°28'0 0.3
2017-Jul-20 03:29N 34°27' E 033°29'0 0.3
2017-Jul-20 02:32N 34°27' E 033°29'0 0.2
2017-Jul-20 02:26N 34°26' E 033°29'0 0.3
2017-Jul-20 01:59N 34°26' E 033°29'0 0.2
2017-Jul-20 01:26N 34°26' E 033°29'0 0.0
2017-Jul-20 00:59N 34°26' E 033°29'0 0.0
2017-Jul-20 00:29N 34°26' E 033°29'0 0.1
2017-Jul-19 23:56N 34°26' E 033°29'0 0.2
2017-Jul-19 23:29N 34°26' E 033°29'0 0.1
2017-Jul-19 22:59N 34°26' E 033°29'0 0.3
2017-Jul-19 22:29N 34°27' E 033°29'0 0.5
2017-Jul-19 21:59N 34°27' E 033°29'0 0.6
2017-Jul-19 21:26N 34°27' E 033°28'0 0.6
2017-Jul-19 20:56N 34°27' E 033°28'1 0.7
2017-Jul-19 20:11N 34°28' E 033°28'0 0.7
2017-Jul-19 19:47N 34°28' E 033°27'0 0.7
2017-Jul-19 19:17N 34°28' E 033°27'0 0.7
2017-Jul-19 18:56N 34°28' E 033°27'0 0.7
2017-Jul-19 18:29N 34°28' E 033°27'0 0.7
2017-Jul-19 17:59N 34°28' E 033°26'0 0.8
2017-Jul-19 17:30N 34°29' E 033°26'0 0.8
2017-Jul-19 17:00N 34°29' E 033°25'0 0.9
2017-Jul-19 16:30N 34°29' E 033°25'0 0.9
2017-Jul-19 16:00N 34°29' E 033°24'0 0.9
2017-Jul-19 15:30N 34°29' E 033°24'0 0.9
2017-Jul-19 15:00N 34°30' E 033°23'0 0.9
2017-Jul-19 14:30N 34°30' E 033°23'0 0.9
2017-Jul-19 14:00N 34°30' E 033°22'0 0.9
2017-Jul-19 13:30N 34°30' E 033°22'0 0.9
2017-Jul-19 13:00N 34°30' E 033°21'1 1.0
2017-Jul-19 12:27N 34°30' E 033°21'0 1.0
2017-Jul-19 12:00N 34°30' E 033°20'1 1.0
2017-Jul-19 11:30N 34°31' E 033°20'1 1.0
2017-Jul-19 11:00N 34°31' E 033°19'0 1.0
2017-Jul-19 10:30N 34°31' E 033°18'1 0.9
2017-Jul-19 09:45N 34°30' E 033°18'0 0.9
2017-Jul-19 09:30N 34°30' E 033°17'0 0.9
2017-Jul-19 09:00N 34°30' E 033°17'0 0.8
2017-Jul-19 08:30N 34°30' E 033°17'3 6.8
2017-Jul-19 08:00N 34°30' E 033°21'4 7.9
2017-Jul-19 07:30N 34°30' E 033°26'0 0.4
2017-Jul-19 06:59N 34°30' E 033°26'0 0.6
2017-Jul-19 06:29N 34°30' E 033°26'0 0.5
2017-Jul-19 05:59N 34°29' E 033°26'0 0.7
2017-Jul-19 05:29N 34°29' E 033°26'0 0.7
2017-Jul-19 04:59N 34°29' E 033°26'0 0.5
2017-Jul-19 04:29N 34°28' E 033°26'0 0.2
2017-Jul-19 02:38N 34°28' E 033°26'1 0.2
2017-Jul-18 21:47N 34°29' E 033°26'0 0.4
2017-Jul-18 21:29N 34°29' E 033°26'0 0.5
2017-Jul-18 20:59N 34°29' E 033°25'0 0.5
2017-Jul-18 20:29N 34°29' E 033°25'0 0.5
2017-Jul-18 19:59N 34°29' E 033°25'1 0.7
2017-Jul-18 19:17N 34°29' E 033°24'0 0.8
2017-Jul-18 18:59N 34°30' E 033°24'0 0.9
2017-Jul-18 18:29N 34°30' E 033°23'0 0.9
2017-Jul-18 18:00N 34°30' E 033°23'0 0.9
2017-Jul-18 17:30N 34°30' E 033°22'0 1.0
2017-Jul-18 16:59N 34°30' E 033°22'1 1.0
2017-Jul-18 16:27N 34°30' E 033°21'0 0.9
2017-Jul-18 15:59N 34°30' E 033°21'0 0.8
2017-Jul-18 15:30N 34°30' E 033°20'0 0.8
2017-Jul-18 14:56N 34°30' E 033°20'1 0.7
2017-Jul-18 13:47N 34°30' E 033°19'0 0.6
2017-Jul-18 13:29N 34°30' E 033°18'0 0.6
2017-Jul-18 13:00N 34°30' E 033°18'0 0.5
2017-Jul-18 12:30N 34°30' E 033°18'0 0.5
2017-Jul-18 11:56N 34°30' E 033°17'0 0.4
2017-Jul-18 11:30N 34°30' E 033°17'0 0.5
2017-Jul-18 10:51N 34°30' E 033°17'0 0.3
2017-Jul-18 10:30N 34°30' E 033°17'0 0.6
2017-Jul-18 10:00N 34°30' E 033°17'3 7.0
2017-Jul-18 09:30N 34°32' E 033°20'3 5.0
2017-Jul-18 08:52N 34°34' E 033°23'0 0.3
2017-Jul-18 08:16N 34°34' E 033°23'0 0.5
2017-Jul-18 07:58N 34°34' E 033°23'0 0.4
2017-Jul-18 07:22N 34°34' E 033°23'0 0.5
2017-Jul-18 06:58N 34°34' E 033°23'0 0.7
2017-Jul-18 06:28N 34°33' E 033°23'3 0.3
2017-Jul-17 22:09N 34°31' E 033°23'0 0.2
2017-Jul-17 22:00N 34°31' E 033°23'1 0.4
2017-Jul-17 20:12N 34°30' E 033°23'0 0.4
2017-Jul-17 20:00N 34°30' E 033°23'0 0.3
2017-Jul-17 19:27N 34°30' E 033°22'0 0.3
2017-Jul-17 18:57N 34°30' E 033°22'0 0.3
2017-Jul-17 18:27N 34°30' E 033°22'0 0.3
2017-Jul-17 17:33N 34°29' E 033°22'0 0.3
2017-Jul-17 17:27N 34°29' E 033°22'0 0.3
2017-Jul-17 16:51N 34°29' E 033°22'0 0.3
2017-Jul-17 16:30N 34°29' E 033°22'0 0.3
2017-Jul-17 16:00N 34°29' E 033°21'0 0.4
2017-Jul-17 15:30N 34°29' E 033°21'0 0.4
2017-Jul-17 14:27N 34°29' E 033°21'0 0.4
2017-Jul-17 13:15N 34°29' E 033°20'0 0.4
2017-Jul-17 12:03N 34°29' E 033°20'0 0.5
2017-Jul-17 12:00N 34°29' E 033°20'1 0.3
2017-Jul-17 10:00N 34°29' E 033°19'0 0.3
2017-Jul-17 09:30N 34°29' E 033°19'0 0.4
2017-Jul-17 08:57N 34°29' E 033°18'0 0.4
2017-Jul-17 08:30N 34°29' E 033°18'0 0.4
2017-Jul-17 08:00N 34°29' E 033°18'0 0.3
2017-Jul-17 07:30N 34°30' E 033°18'0 0.4
2017-Jul-17 07:00N 34°30' E 033°18'0 0.7
2017-Jul-17 06:30N 34°30' E 033°17'1 2.2
2017-Jul-17 06:00N 34°30' E 033°18'3 0.5
2017-Jul-17 00:49N 34°30' E 033°22'0 0.4
2017-Jul-17 00:28N 34°30' E 033°22'0 0.4
2017-Jul-16 23:58N 34°30' E 033°22'0 0.3
2017-Jul-16 23:07N 34°30' E 033°21'0 0.2
2017-Jul-16 22:58N 34°30' E 033°21'0 0.3
2017-Jul-16 22:28N 34°30' E 033°21'0 0.2
2017-Jul-16 21:37N 34°30' E 033°21'0 0.3
2017-Jul-16 21:25N 34°30' E 033°21'0 0.3
2017-Jul-16 20:58N 34°30' E 033°21'0 0.3
2017-Jul-16 20:28N 34°30' E 033°21'0 0.3
2017-Jul-16 19:58N 34°29' E 033°21'0 0.3
2017-Jul-16 19:28N 34°29' E 033°20'0 0.3
2017-Jul-16 18:58N 34°29' E 033°20'0 0.4
2017-Jul-16 18:28N 34°29' E 033°20'0 0.4
2017-Jul-16 17:55N 34°29' E 033°20'0 0.4
2017-Jul-16 17:22N 34°29' E 033°20'0 0.4
2017-Jul-16 16:37N 34°29' E 033°19'0 0.5
2017-Jul-16 16:28N 34°29' E 033°19'0 0.5
2017-Jul-16 15:58N 34°29' E 033°19'0 0.5
2017-Jul-16 15:28N 34°29' E 033°19'0 0.5
2017-Jul-16 14:55N 34°29' E 033°18'0 0.5
2017-Jul-16 14:28N 34°29' E 033°18'0 0.5
2017-Jul-16 13:52N 34°29' E 033°18'0 0.5
2017-Jul-16 13:22N 34°30' E 033°17'0 0.6
2017-Jul-16 12:58N 34°30' E 033°17'0 0.3
2017-Jul-16 11:37N 34°30' E 033°17'0 2.8
2017-Jul-16 11:30N 34°30' E 033°17'3 6.1
2017-Jul-16 11:00N 34°33' E 033°18'2 4.6
2017-Jul-16 10:29N 34°35' E 033°19'0 0.2
2017-Jul-16 09:56N 34°35' E 033°20'0 0.1
2017-Jul-16 09:29N 34°35' E 033°20'0 0.1
2017-Jul-16 08:59N 34°35' E 033°20'0 0.1
2017-Jul-16 08:29N 34°35' E 033°20'0 0.2
2017-Jul-16 07:59N 34°35' E 033°19'0 0.3
2017-Jul-16 07:26N 34°35' E 033°19'0 0.3
2017-Jul-16 06:59N 34°35' E 033°19'0 0.2
2017-Jul-16 06:26N 34°34' E 033°19'0 0.2
2017-Jul-16 05:59N 34°34' E 033°19'0 0.3
2017-Jul-16 05:30N 34°34' E 033°19'0 0.3
2017-Jul-16 05:00N 34°34' E 033°19'0 0.3
2017-Jul-16 04:28N 34°34' E 033°19'0 0.3
2017-Jul-16 04:00N 34°34' E 033°19'0 0.3
2017-Jul-16 03:30N 34°34' E 033°19'0 0.3
2017-Jul-16 03:00N 34°33' E 033°19'0 0.4
2017-Jul-16 02:30N 34°33' E 033°19'0 0.4
2017-Jul-16 02:00N 34°33' E 033°19'0 0.4
2017-Jul-16 01:30N 34°33' E 033°19'0 0.4
2017-Jul-16 01:00N 34°33' E 033°20'0 0.4
2017-Jul-16 00:29N 34°33' E 033°20'0 0.5
2017-Jul-16 00:00N 34°32' E 033°20'0 0.5
2017-Jul-15 23:30N 34°32' E 033°20'0 0.5
2017-Jul-15 22:59N 34°32' E 033°20'0 0.3
2017-Jul-15 22:30N 34°32' E 033°20'0 0.2
2017-Jul-15 21:55N 34°32' E 033°21'0 0.3
2017-Jul-15 21:25N 34°32' E 033°21'0 0.2
2017-Jul-15 21:00N 34°32' E 033°21'0 0.1
2017-Jul-15 20:30N 34°32' E 033°21'0 0.0
2017-Jul-15 20:00N 34°32' E 033°21'0 0.1
2017-Jul-15 19:30N 34°32' E 033°21'0 0.0
2017-Jul-15 19:00N 34°32' E 033°21'0 0.1
2017-Jul-15 18:30N 34°32' E 033°21'0 0.2
2017-Jul-15 18:00N 34°32' E 033°21'0 0.2
2017-Jul-15 17:30N 34°32' E 033°21'0 0.2
2017-Jul-15 17:00N 34°32' E 033°21'0 0.2
2017-Jul-15 16:30N 34°32' E 033°20'0 0.3
2017-Jul-15 16:00N 34°32' E 033°20'0 0.3
2017-Jul-15 15:31N 34°32' E 033°20'0 0.3
2017-Jul-15 15:00N 34°32' E 033°20'0 0.4
2017-Jul-15 14:00N 34°32' E 033°19'0 0.4
2017-Jul-15 13:30N 34°32' E 033°19'0 0.4
2017-Jul-15 13:00N 34°32' E 033°19'0 0.5
2017-Jul-15 12:30N 34°31' E 033°19'0 0.5
2017-Jul-15 12:00N 34°31' E 033°18'0 0.4
2017-Jul-15 11:22N 34°31' E 033°18'0 0.5
2017-Jul-15 11:00N 34°31' E 033°18'0 0.3
2017-Jul-15 10:22N 34°31' E 033°18'0 0.4
2017-Jul-15 10:00N 34°31' E 033°18'0 0.4
2017-Jul-15 09:27N 34°31' E 033°18'0 0.3
2017-Jul-15 09:00N 34°30' E 033°18'0 0.6
2017-Jul-15 08:30N 34°30' E 033°17'1 1.5
2017-Jul-15 08:00N 34°31' E 033°17'4 8.7
2017-Jul-15 07:30N 34°35' E 033°19'2 2.9
2017-Jul-15 06:58N 34°36' E 033°19'1 0.5
2017-Jul-15 05:19N 34°36' E 033°20'0 0.4
2017-Jul-15 05:01N 34°35' E 033°20'0 0.4
2017-Jul-15 04:16N 34°35' E 033°20'0 0.5
2017-Jul-15 03:40N 34°35' E 033°20'1 0.6
2017-Jul-15 02:46N 34°34' E 033°20'0 0.6
2017-Jul-15 02:16N 34°34' E 033°20'0 0.6
2017-Jul-15 01:55N 34°34' E 033°20'0 0.6
2017-Jul-15 01:28N 34°34' E 033°20'0 0.5
2017-Jul-15 00:40N 34°33' E 033°21'0 0.4
2017-Jul-15 00:27N 34°33' E 033°21'0 0.5
2017-Jul-14 23:58N 34°33' E 033°21'0 0.4
2017-Jul-14 23:25N 34°33' E 033°21'0 0.3
2017-Jul-14 22:57N 34°33' E 033°21'0 0.3
2017-Jul-14 22:27N 34°33' E 033°21'0 0.3
2017-Jul-14 21:58N 34°32' E 033°21'0 0.3
2017-Jul-14 21:15N 34°32' E 033°21'0 0.3
2017-Jul-14 20:30N 34°32' E 033°21'0 0.1
2017-Jul-14 20:00N 34°32' E 033°22'0 0.1
2017-Jul-14 19:27N 34°32' E 033°22'0 0.2
2017-Jul-14 19:00N 34°32' E 033°22'0 0.1
2017-Jul-14 18:31N 34°32' E 033°22'0 0.3
2017-Jul-14 17:57N 34°32' E 033°22'0 0.2
2017-Jul-14 17:27N 34°32' E 033°21'0 0.2
2017-Jul-14 17:01N 34°32' E 033°21'0 0.4
2017-Jul-14 16:28N 34°32' E 033°21'0 0.4
2017-Jul-14 16:01N 34°32' E 033°21'0 0.4
2017-Jul-14 15:30N 34°32' E 033°21'0 0.5
2017-Jul-14 14:57N 34°32' E 033°20'0 0.5
2017-Jul-14 14:30N 34°32' E 033°20'0 0.5
2017-Jul-14 14:00N 34°32' E 033°20'0 0.5
2017-Jul-14 13:27N 34°32' E 033°19'0 0.5
2017-Jul-14 13:00N 34°32' E 033°19'0 0.5
2017-Jul-14 12:31N 34°32' E 033°19'0 0.6
2017-Jul-14 12:01N 34°31' E 033°19'0 0.6
2017-Jul-14 11:28N 34°31' E 033°18'0 0.6
2017-Jul-14 11:00N 34°31' E 033°18'0 0.7
2017-Jul-14 10:31N 34°31' E 033°18'0 0.7
2017-Jul-14 10:00N 34°30' E 033°18'0 0.6
2017-Jul-14 09:31N 34°30' E 033°17'0 0.4
2017-Jul-14 09:00N 34°30' E 033°17'0 0.6
2017-Jul-14 08:30N 34°30' E 033°17'2 3.7
2017-Jul-14 08:00N 34°31' E 033°18'510.6
2017-Jul-14 07:30N 34°34' E 033°24'2 2.9
2017-Jul-14 06:53N 34°35' E 033°26'0 0.6
2017-Jul-14 06:27N 34°35' E 033°26'0 0.5
2017-Jul-14 06:00N 34°34' E 033°26'0 0.5
2017-Jul-14 05:12N 34°34' E 033°26'0 0.4
2017-Jul-14 05:00N 34°34' E 033°26'0 0.4
2017-Jul-14 04:00N 34°34' E 033°26'0 0.3
2017-Jul-14 03:12N 34°33' E 033°27'0 0.1
2017-Jul-14 00:54N 34°33' E 033°27'0 0.1
2017-Jul-14 00:30N 34°33' E 033°27'0 0.0
2017-Jul-14 00:00N 34°33' E 033°27'0 0.1
2017-Jul-13 23:30N 34°33' E 033°27'0 0.1
2017-Jul-13 22:42N 34°33' E 033°27'0 0.2
2017-Jul-13 22:30N 34°33' E 033°27'1 0.3
2017-Jul-13 20:48N 34°34' E 033°26'0 0.4
2017-Jul-13 20:12N 34°34' E 033°26'0 0.4
2017-Jul-13 20:00N 34°34' E 033°26'2 0.6
2017-Jul-13 15:43N 34°33' E 033°23'0 0.7
2017-Jul-13 15:30N 34°33' E 033°23'0 0.8
2017-Jul-13 14:57N 34°33' E 033°22'0 0.8
2017-Jul-13 14:18N 34°32' E 033°22'0 0.7
2017-Jul-13 14:00N 34°32' E 033°21'1 0.9
2017-Jul-13 13:24N 34°32' E 033°21'0 0.8
2017-Jul-13 12:57N 34°32' E 033°21'0 0.7
2017-Jul-13 12:30N 34°32' E 033°20'1 0.8
2017-Jul-13 10:45N 34°31' E 033°19'0 0.6
2017-Jul-13 10:24N 34°30' E 033°19'0 0.6
2017-Jul-13 10:00N 34°30' E 033°19'1 0.4
2017-Jul-13 07:37N 34°29' E 033°18'0 0.5
2017-Jul-13 07:25N 34°29' E 033°18'0 1.0
2017-Jul-13 07:00N 34°29' E 033°18'2 3.7
2017-Jul-13 06:30N 34°30' E 033°19'711.4
2017-Jul-13 05:52N 34°35' E 033°26'3 1.6
2017-Jul-13 03:54N 34°37' E 033°29'  

Dump ship's entire track history